createdAt,value
2022-09-02T00:01:24.922Z,2.72
2022-09-02T00:03:53.062Z,2.60
2022-09-02T00:06:19.721Z,2.63
2022-09-02T00:08:46.433Z,2.42
2022-09-02T00:11:18.506Z,2.70
2022-09-02T00:13:47.098Z,2.63
2022-09-02T00:16:14.766Z,2.55
2022-09-02T00:18:44.942Z,2.38
2022-09-02T00:21:13.713Z,2.95
2022-09-02T00:23:44.509Z,2.83
2022-09-02T00:26:13.437Z,2.42
2022-09-02T00:28:51.088Z,2.63
2022-09-02T00:31:23.604Z,2.13
2022-09-02T00:33:51.472Z,2.28
2022-09-02T00:36:18.090Z,3.05
2022-09-02T00:38:44.691Z,2.88
2022-09-02T00:41:11.893Z,2.65
2022-09-02T00:43:46.546Z,2.22
2022-09-02T00:46:19.466Z,2.40
2022-09-02T00:49:12.656Z,2.50
2022-09-02T00:51:47.309Z,2.55
2022-09-02T00:54:16.672Z,3.03
2022-09-02T00:56:46.091Z,2.53
2022-09-02T00:59:20.808Z,2.95
2022-09-02T01:01:47.877Z,2.85
2022-09-02T01:04:15.679Z,2.70
2022-09-02T01:06:42.283Z,2.35
2022-09-02T01:09:13.290Z,2.50
2022-09-02T01:11:47.951Z,2.97
2022-09-02T01:14:17.606Z,2.60
2022-09-02T01:16:47.559Z,2.28
2022-09-02T01:19:30.658Z,2.58
2022-09-02T01:21:57.849Z,2.15
2022-09-02T01:24:32.647Z,2.53
2022-09-02T01:27:00.331Z,2.20
2022-09-02T01:29:28.771Z,2.85
2022-09-02T01:31:55.782Z,2.72
2022-09-02T01:34:23.295Z,2.70
2022-09-02T01:36:50.077Z,2.53
2022-09-02T01:39:17.352Z,2.88
2022-09-02T01:41:44.510Z,2.35
2022-09-02T01:44:11.079Z,2.90
2022-09-02T01:46:37.812Z,2.67
2022-09-02T01:49:04.764Z,2.75
2022-09-02T01:51:31.419Z,2.40
2022-09-02T01:53:58.000Z,3.30
2022-09-02T01:56:24.589Z,2.60
2022-09-02T01:58:51.205Z,3.13
2022-09-02T02:01:19.705Z,2.92
2022-09-02T02:03:46.881Z,2.90
2022-09-02T02:06:16.746Z,3.40
2022-09-02T02:08:44.034Z,3.10
2022-09-02T02:11:10.847Z,3.00
2022-09-02T02:13:37.802Z,2.63
2022-09-02T02:16:05.723Z,3.00
2022-09-02T02:18:32.383Z,3.95
2022-09-02T02:20:58.911Z,3.20
2022-09-02T02:23:26.160Z,3.58
2022-09-02T02:25:52.856Z,3.13
2022-09-02T02:28:19.507Z,3.97
2022-09-02T02:30:46.093Z,3.80
2022-09-02T02:33:13.612Z,4.22
2022-09-02T02:35:41.303Z,4.13
2022-09-02T02:38:08.532Z,4.70
2022-09-02T02:40:35.545Z,4.13
2022-09-02T02:43:02.260Z,3.55
2022-09-02T02:45:29.373Z,3.20
2022-09-02T02:47:55.903Z,3.15
2022-09-02T02:50:24.185Z,3.33
2022-09-02T02:52:53.376Z,3.83
2022-09-02T02:55:20.595Z,4.20
2022-09-02T02:57:47.343Z,3.40
2022-09-02T03:00:16.621Z,3.33
2022-09-02T03:02:43.334Z,3.55
2022-09-02T03:05:13.387Z,3.30
2022-09-02T03:10:08.589Z,2.97
2022-09-02T03:12:36.753Z,3.60
2022-09-02T03:15:04.757Z,3.40
2022-09-02T03:17:31.474Z,3.20
2022-09-02T03:19:59.176Z,3.28
2022-09-02T03:22:28.860Z,3.22
2022-09-02T03:24:55.857Z,3.13
2022-09-02T03:27:22.623Z,2.97
2022-09-02T03:29:49.178Z,2.65
2022-09-02T03:32:16.975Z,3.00
2022-09-02T03:34:43.620Z,3.33
2022-09-02T03:37:10.393Z,3.05
2022-09-02T03:39:39.415Z,2.83
2022-09-02T03:42:06.374Z,3.42
2022-09-02T03:44:34.314Z,3.08
2022-09-02T03:47:01.029Z,3.17
2022-09-02T03:49:28.809Z,3.58
2022-09-02T03:51:56.080Z,2.90
2022-09-02T03:54:23.197Z,2.28
2022-09-02T03:56:50.045Z,3.00
2022-09-02T03:59:17.053Z,3.60
2022-09-02T04:01:45.190Z,2.65
2022-09-02T04:04:12.067Z,2.92
2022-09-02T04:06:38.779Z,2.92
2022-09-02T04:09:05.973Z,3.25
2022-09-02T04:11:32.645Z,3.63
2022-09-02T04:13:59.491Z,3.75
2022-09-02T04:17:22.301Z,3.22
2022-09-02T04:20:44.922Z,3.00
2022-09-02T04:23:11.816Z,3.33
2022-09-02T04:25:41.892Z,3.67
2022-09-02T04:30:37.963Z,2.90
2022-09-02T04:33:05.869Z,2.75
2022-09-02T04:35:32.418Z,2.92
2022-09-02T04:37:59.596Z,3.55
2022-09-02T04:40:26.275Z,2.80
2022-09-02T04:42:55.452Z,3.08
2022-09-02T04:45:24.584Z,3.30
2022-09-02T04:47:53.294Z,3.30
2022-09-02T04:50:20.068Z,2.97
2022-09-02T04:52:46.574Z,3.10
2022-09-02T04:55:13.160Z,2.95
2022-09-02T04:57:39.746Z,2.58
2022-09-02T05:00:08.214Z,3.00
2022-09-02T05:02:35.216Z,2.60
2022-09-02T05:05:02.060Z,2.75
2022-09-02T05:07:28.671Z,2.38
2022-09-02T05:10:01.035Z,2.10
2022-09-02T05:12:28.085Z,2.08
2022-09-02T05:14:57.103Z,2.15
2022-09-02T05:17:23.749Z,2.30
2022-09-02T05:19:50.327Z,1.75
2022-09-02T05:22:17.040Z,2.13
2022-09-02T05:24:43.759Z,1.98
2022-09-02T05:27:10.572Z,1.77
2022-09-02T05:29:37.539Z,1.80
2022-09-02T05:32:05.155Z,1.85
2022-09-02T05:34:35.692Z,1.80
2022-09-02T05:37:04.116Z,1.38
2022-09-02T05:39:31.224Z,1.25
2022-09-02T05:41:58.364Z,1.48
2022-09-02T05:44:25.081Z,1.58
2022-09-02T05:46:51.728Z,1.42
2022-09-02T05:49:18.498Z,1.40
2022-09-02T05:51:50.775Z,1.35
2022-09-02T05:54:21.160Z,1.42
2022-09-02T05:56:50.051Z,1.67
2022-09-02T05:59:19.696Z,1.23
2022-09-02T06:01:47.078Z,1.33
2022-09-02T06:04:13.952Z,1.38
2022-09-02T06:06:41.897Z,1.10
2022-09-02T06:09:10.688Z,1.13
2022-09-02T06:11:39.959Z,1.33
2022-09-02T06:14:10.246Z,1.30
2022-09-02T06:16:38.119Z,1.30
2022-09-02T06:19:05.046Z,0.93
2022-09-02T06:21:32.528Z,1.50
2022-09-02T06:23:59.988Z,0.98
2022-09-02T06:26:26.911Z,0.85
2022-09-02T06:28:53.455Z,1.35
2022-09-02T06:31:22.970Z,0.70
2022-09-02T06:33:53.147Z,1.27
2022-09-02T06:36:21.552Z,1.17
2022-09-02T06:38:52.953Z,1.23
2022-09-02T06:41:23.378Z,1.33
2022-09-02T06:43:50.611Z,1.17
2022-09-02T06:46:23.274Z,1.33
2022-09-02T06:48:50.287Z,1.13
2022-09-02T06:51:22.127Z,1.02
2022-09-02T06:53:48.692Z,1.02
2022-09-02T06:56:16.223Z,1.25
2022-09-02T06:58:43.804Z,0.70
2022-09-02T07:01:13.362Z,1.00
2022-09-02T07:03:58.669Z,0.93
2022-09-02T07:06:25.967Z,0.98
2022-09-02T07:08:52.591Z,0.80
2022-09-02T07:11:23.808Z,1.08
2022-09-02T07:13:50.996Z,1.30
2022-09-02T07:16:26.928Z,0.88
2022-09-02T07:18:54.396Z,1.13
2022-09-02T07:21:20.966Z,0.90
2022-09-02T07:23:47.603Z,0.63
2022-09-02T07:26:16.177Z,1.02
2022-09-02T07:28:43.217Z,0.98
2022-09-02T07:31:15.138Z,0.75
2022-09-02T07:33:44.299Z,1.00
2022-09-02T07:36:16.694Z,0.80
2022-09-02T07:38:43.330Z,0.85
2022-09-02T07:41:10.754Z,0.70
2022-09-02T07:43:38.029Z,0.90
2022-09-02T07:46:06.348Z,0.80
2022-09-02T07:48:34.569Z,0.85
2022-09-02T07:51:01.478Z,0.90
2022-09-02T07:53:28.563Z,0.80
2022-09-02T07:55:55.186Z,0.60
2022-09-02T07:58:22.509Z,1.10
2022-09-02T08:00:50.342Z,1.10
2022-09-02T08:03:18.147Z,0.65
2022-09-02T08:05:47.154Z,0.80
2022-09-02T08:08:15.786Z,0.93
2022-09-02T08:10:42.799Z,0.80
2022-09-02T08:13:10.549Z,0.60
2022-09-02T08:15:38.897Z,0.65
2022-09-02T08:18:06.929Z,0.80
2022-09-02T08:20:35.632Z,0.90
2022-09-02T08:23:11.622Z,0.47
2022-09-02T08:25:45.495Z,0.85
2022-09-02T08:28:12.060Z,0.50
2022-09-02T08:30:38.970Z,0.50
2022-09-02T08:33:05.922Z,1.02
2022-09-02T08:35:32.997Z,0.70
2022-09-02T08:38:01.496Z,0.65
2022-09-02T08:40:37.281Z,1.00
2022-09-02T08:43:39.928Z,1.63
2022-09-02T08:46:11.289Z,0.68
2022-09-02T08:48:46.238Z,0.50
2022-09-02T08:51:24.247Z,0.50
2022-09-02T08:54:13.776Z,0.80
2022-09-02T08:56:41.658Z,0.65
2022-09-02T08:59:10.339Z,0.73
2022-09-02T09:01:53.500Z,0.40
2022-09-02T09:04:22.937Z,0.80
2022-09-02T09:07:01.436Z,0.57
2022-09-02T09:10:05.930Z,0.60
2022-09-02T09:12:57.038Z,0.50
2022-09-02T09:15:40.374Z,0.80
2022-09-02T09:18:17.089Z,0.60
2022-09-02T09:20:45.215Z,0.70
2022-09-02T09:23:35.127Z,0.57
2022-09-02T09:26:12.254Z,0.57
2022-09-02T09:28:49.309Z,0.50
2022-09-02T09:31:21.757Z,0.60
2022-09-02T09:34:14.673Z,0.47
2022-09-02T09:36:41.187Z,0.55
2022-09-02T09:39:24.871Z,0.55
2022-09-02T09:41:54.786Z,0.60
2022-09-02T09:44:46.413Z,0.63
2022-09-02T09:47:22.824Z,0.20
2022-09-02T09:50:09.491Z,0.70
2022-09-02T09:52:36.291Z,0.50
2022-09-02T09:55:24.970Z,0.40
2022-09-02T09:57:53.563Z,0.40
2022-09-02T10:00:26.915Z,0.40
2022-09-02T10:02:56.830Z,0.30
2022-09-02T10:05:40.365Z,0.50
2022-09-02T10:08:22.681Z,0.40
2022-09-02T10:10:55.577Z,0.40
2022-09-02T10:13:25.742Z,0.63
2022-09-02T10:16:04.289Z,0.50
2022-09-02T10:18:42.686Z,0.60
2022-09-02T10:21:39.058Z,0.45
2022-09-02T10:24:38.381Z,0.70
2022-09-02T10:27:09.208Z,0.60
2022-09-02T10:29:35.689Z,0.50
2022-09-02T10:32:33.140Z,0.30
2022-09-02T10:35:08.500Z,0.40
2022-09-02T10:37:52.169Z,0.43
2022-09-02T10:40:27.393Z,0.60
2022-09-02T10:42:57.365Z,0.47
2022-09-02T10:45:46.808Z,0.35
2022-09-02T10:48:41.534Z,0.40
2022-09-02T10:51:16.818Z,0.20
2022-09-02T10:53:54.790Z,0.65
2022-09-02T10:56:29.295Z,0.40
2022-09-02T10:59:02.870Z,0.50
2022-09-02T11:01:52.553Z,0.68
2022-09-02T11:04:40.782Z,0.60
2022-09-02T11:07:10.924Z,0.47
2022-09-02T11:09:54.646Z,0.45
2022-09-02T11:12:32.043Z,0.38
2022-09-02T11:15:24.077Z,0.32
2022-09-02T11:18:00.544Z,0.20
2022-09-02T11:20:39.749Z,0.50
2022-09-02T11:23:25.049Z,0.38
2022-09-02T11:26:08.747Z,0.50
2022-09-02T11:28:59.826Z,0.43
2022-09-02T11:31:54.700Z,0.52
2022-09-02T11:34:38.431Z,0.40
2022-09-02T11:37:08.959Z,0.50
2022-09-02T11:40:06.659Z,0.40
2022-09-02T11:42:50.493Z,0.50
2022-09-02T11:45:22.112Z,0.57
2022-09-02T11:48:29.831Z,0.40
2022-09-02T11:53:48.775Z,0.55
2022-09-02T11:56:35.626Z,0.40
2022-09-02T11:59:04.442Z,0.57
2022-09-02T12:01:43.640Z,0.40
2022-09-02T12:04:56.133Z,0.28
2022-09-02T12:07:07.921Z,0.40
2022-09-02T12:10:03.504Z,0.40
2022-09-02T12:12:39.302Z,0.47
2022-09-02T12:15:06.582Z,0.57
2022-09-02T12:17:47.284Z,0.35
2022-09-02T12:20:38.978Z,0.40
2022-09-02T12:23:07.885Z,0.40
2022-09-02T12:25:40.672Z,0.43
2022-09-02T12:28:27.802Z,0.30
2022-09-02T12:31:09.103Z,0.47
2022-09-02T12:33:46.494Z,0.32
2022-09-02T12:36:40.063Z,0.38
2022-09-02T12:39:25.391Z,0.60
2022-09-02T12:41:58.062Z,0.60
2022-09-02T12:44:52.580Z,0.45
2022-09-02T12:47:26.574Z,0.43
2022-09-02T12:49:59.625Z,0.40
2022-09-02T12:52:35.646Z,0.35
2022-09-02T12:55:31.753Z,0.40
2022-09-02T12:58:19.934Z,0.40
2022-09-02T13:01:23.743Z,0.70
2022-09-02T13:04:19.576Z,0.43
2022-09-02T13:07:07.701Z,0.50
2022-09-02T13:09:46.419Z,0.75
2022-09-02T13:12:37.650Z,0.30
2022-09-02T13:15:26.814Z,0.60
2022-09-02T13:18:24.043Z,0.65
2022-09-02T13:21:41.296Z,0.40
2022-09-02T13:24:13.276Z,0.68
2022-09-02T13:27:36.849Z,0.60
2022-09-02T13:30:20.022Z,0.35
2022-09-02T13:32:56.721Z,0.40
2022-09-02T13:35:28.022Z,0.30
2022-09-02T13:38:00.746Z,0.30
2022-09-02T13:40:38.361Z,0.50
2022-09-02T13:43:18.793Z,0.40
2022-09-02T13:45:46.800Z,0.50
2022-09-02T13:48:28.025Z,0.63
2022-09-02T13:51:22.802Z,0.50
2022-09-02T13:57:19.750Z,0.43
2022-09-02T13:59:57.050Z,0.40
2022-09-02T14:02:33.191Z,0.68
2022-09-02T14:05:06.791Z,0.60
2022-09-02T14:11:22.484Z,0.80
2022-09-02T14:13:51.120Z,0.75
2022-09-02T14:16:36.331Z,0.90
2022-09-02T14:19:05.041Z,0.80
2022-09-02T18:20:46.996Z,0.93
2022-09-02T18:23:57.590Z,0.90
2022-09-02T18:27:01.611Z,1.08
2022-09-02T18:30:03.519Z,0.90
2022-09-02T18:33:09.602Z,0.95
2022-09-02T18:35:45.052Z,0.80
2022-09-02T18:38:28.675Z,1.30
2022-09-02T18:41:13.738Z,1.05
2022-09-02T18:44:07.676Z,1.25
2022-09-02T18:46:49.749Z,1.00
2022-09-02T18:49:17.158Z,1.10
2022-09-02T18:51:44.987Z,1.25
2022-09-02T18:54:23.778Z,1.13
2022-09-02T18:56:58.394Z,1.23
2022-09-02T18:59:37.974Z,0.77
2022-09-02T19:02:19.257Z,1.30
2022-09-02T19:04:46.394Z,0.80
2022-09-02T19:07:32.147Z,1.00
2022-09-02T19:10:01.343Z,1.10
2022-09-02T19:12:32.842Z,1.03
2022-09-02T19:15:00.756Z,1.10
2022-09-02T19:17:27.582Z,1.15
2022-09-02T19:19:54.191Z,1.40
2022-09-02T19:22:28.517Z,0.90
2022-09-02T19:25:01.357Z,1.30
2022-09-02T19:27:32.389Z,1.38
2022-09-02T19:30:12.440Z,1.63
2022-09-02T19:35:16.554Z,1.25
2022-09-02T19:37:47.870Z,1.40
2022-09-02T19:40:20.038Z,1.58
2022-09-02T19:42:46.709Z,1.35
2022-09-02T19:45:16.411Z,1.30
2022-09-02T19:48:05.978Z,1.55
2022-09-02T19:50:30.859Z,1.58
2022-09-02T19:52:57.474Z,1.85
2022-09-02T19:55:24.411Z,2.50
2022-09-02T19:57:53.198Z,1.75
2022-09-02T20:00:23.436Z,1.85
2022-09-02T20:02:51.097Z,1.67
2022-09-02T20:05:17.747Z,1.27
2022-09-02T20:07:44.297Z,1.50
2022-09-02T20:10:11.187Z,1.73
2022-09-02T20:12:37.789Z,1.58
2022-09-02T20:15:07.306Z,1.98
2022-09-02T20:17:34.108Z,1.65
2022-09-02T20:20:08.429Z,2.05
2022-09-02T20:22:35.238Z,2.03
2022-09-02T20:25:01.883Z,2.15
2022-09-02T20:27:49.935Z,2.13
2022-09-02T20:30:18.593Z,1.80
2022-09-02T20:32:58.568Z,1.48
2022-09-02T20:35:49.416Z,1.50
2022-09-02T20:38:28.067Z,4.80
2022-09-02T20:41:23.596Z,2.53
2022-09-02T20:44:15.043Z,2.15
2022-09-02T20:47:15.722Z,2.47
2022-09-02T20:50:11.681Z,2.25
2022-09-02T20:53:14.083Z,2.05
2022-09-02T20:56:03.951Z,1.65
2022-09-02T20:58:59.313Z,1.75
2022-09-02T21:01:36.039Z,1.88
2022-09-02T21:04:12.134Z,1.55
2022-09-02T21:06:50.235Z,1.63
2022-09-02T21:09:28.596Z,2.22
2022-09-02T21:12:08.045Z,2.10
2022-09-02T21:14:51.711Z,1.88
2022-09-02T21:17:33.469Z,1.58
2022-09-02T21:20:24.528Z,1.30
2022-09-02T21:22:57.157Z,1.88
2022-09-02T21:25:45.606Z,1.52
2022-09-02T21:28:19.064Z,2.33
2022-09-02T21:31:03.440Z,2.22
2022-09-02T21:33:33.748Z,1.77
2022-09-02T21:36:02.541Z,2.10
2022-09-02T21:38:38.226Z,2.85
2022-09-02T21:41:16.921Z,1.95
2022-09-02T21:43:55.774Z,1.90
2022-09-02T21:47:01.697Z,2.20
2022-09-02T21:49:35.060Z,2.20
2022-09-02T21:52:29.630Z,2.20
2022-09-02T21:55:09.434Z,2.00
2022-09-02T21:58:02.030Z,2.17
2022-09-02T22:00:28.774Z,2.00
2022-09-02T22:03:26.469Z,2.10
2022-09-02T22:06:10.301Z,2.10
2022-09-02T22:09:02.503Z,2.00
2022-09-02T22:11:39.679Z,1.83
2022-09-02T22:14:22.593Z,2.42
2022-09-02T22:16:56.089Z,1.98
2022-09-02T22:19:29.911Z,2.08
2022-09-02T22:22:18.545Z,2.67
2022-09-02T22:24:47.964Z,1.98
2022-09-02T22:27:20.238Z,1.90
2022-09-02T22:29:54.191Z,1.98
2022-09-02T22:32:24.029Z,1.90
2022-09-02T22:35:11.695Z,2.20
2022-09-02T22:38:03.230Z,2.00
2022-09-02T22:40:33.989Z,1.65
2022-09-02T22:43:10.559Z,1.88
2022-09-02T22:46:04.583Z,1.73
2022-09-02T22:48:57.815Z,1.48
2022-09-02T22:51:52.094Z,1.85
2022-09-02T22:54:18.687Z,1.70
2022-09-02T22:57:04.078Z,2.25
2022-09-02T22:59:33.365Z,2.35
2022-09-02T23:02:21.597Z,1.90
2022-09-02T23:05:02.833Z,1.70
2022-09-02T23:07:33.107Z,2.00
2022-09-02T23:10:00.873Z,2.08
2022-09-02T23:13:11.986Z,2.03
2022-09-02T23:15:49.542Z,2.03
2022-09-02T23:18:29.489Z,2.00
2022-09-02T23:21:19.654Z,2.13
2022-09-02T23:26:45.162Z,2.17
2022-09-02T23:29:26.481Z,1.92
2022-09-02T23:32:32.000Z,2.05
2022-09-02T23:35:17.477Z,2.40
2022-09-02T23:37:56.876Z,2.15
2022-09-02T23:40:27.903Z,2.05
2022-09-02T23:42:58.048Z,3.53
2022-09-02T23:45:32.067Z,3.38
2022-09-02T23:48:13.752Z,2.60
2022-09-02T23:51:03.921Z,2.03
2022-09-02T23:56:33.692Z,2.42
2022-09-02T23:59:10.071Z,2.42
